CheckWX is a tool to help pilots better visualize weather data.  It is not intended as a substitute for an official pre-flight weather briefing.

04:44:42 UTC

KPGV METAR
Pitt-Greenville Airport
Greenville, North Carolina, USA
Current

35 mins ago

KPGV 270410Z AUTO 00000KT 10SM CLR 22/20 A3013 RMK AO2
Observed
Jun-27 @ 04:10 UTC
Visibility
10 SM
Flight Rules
VFR
Cloud Levels
  • Clear skies
Temperature
22°C / 72°F
Dewpoint
20°C / 68°F
Humidity
88%
Altimeter
30.13" Hg
Pressure
1020.32 hPa
Previous

55 mins ago

KPGV 270350Z AUTO 00000KT 10SM CLR 23/20 A3013 RMK AO2
Observed
Jun-27 @ 03:50 UTC
Visibility
10 SM
Flight Rules
VFR
Cloud Levels
  • Clear skies
Temperature
23°C / 73°F
Dewpoint
20°C / 68°F
Humidity
83%
Altimeter
30.13" Hg
Pressure
1020.32 hPa
Previous

2 hours ago

KPGV 270310Z AUTO 00000KT 10SM CLR 24/20 A3013 RMK AO2
Observed
Jun-27 @ 03:10 UTC
Visibility
10 SM
Flight Rules
VFR
Cloud Levels
  • Clear skies
Temperature
24°C / 75°F
Dewpoint
20°C / 68°F
Humidity
78%
Altimeter
30.13" Hg
Pressure
1020.32 hPa